Startpagina
METAR-TAF:

METAR-TAF

Vliegvelden :

Luchthaven Tunis-Carthage

Tunis, Tunesië

breedte: 36-50N, lengte: 010-14E, hoogte: 3 m

Actueel weer

Dit bericht is 1 uur en het 0 minuten geleden gemaakt, om 17:30 UTC
Wind 9 kt uit het noordnoordoosten
Temperatuur 29°C
Vochtigheid 55%
Druk 1013 hPa
Zicht 10 km of meer
Weinig wolken op 4000 ft

METAR: DTTA 181730Z 03009KT 9999 FEW040 29/19 Q1013 NOSIG

Tijdstip: 19:30 (18:30 UTC)

Verwachting

Dit bericht is 59 minuten geleden gemaakt, om 17:31 UTC
Verwachting geldig van 18 om 18 UTC tot 19 om 18 UTC
Wind 8 kt uit het oostnoordoosten
Zicht 10 km of meer
geen wolken onder 1500 m en geen cumulonimbus
Wijzigt naar
van 18 om 22 UTC tot 18 om 24 UTC
Wind 5 kt uit het zuidoosten
Wijzigt naar
van 19 om 06 UTC tot 19 om 08 UTC
Wind 5 kt uit het westen
Wijzigt naar
van 19 om 12 UTC tot 19 om 14 UTC
Wind 14 kt uit het oostnoordoosten

TAF: DTTA 181731Z 1818/1918 07008KT CAVOK BECMG 1822/1824 13005KT BECMG 1906/1908 26005KT BECMG 1912/1914 07014KT

Waarnemingen en weersverwachtingen van meer dan 4000 vliegvelden (METAR en TAF).

De beschikbare stations zijn de gele en rode punten op de kaart.

Ga met uw muis naar het station om de naam te zien.

Klik dan om waarnemingen en weersverwachtingen te zien.

kaart wijzigen: klik op de groene knoppen met een zwart kruis om in te zoomen, op de groene knop met een streepje om uit te zoomen of op de groene pijlen voor aangrenzende kaarten.


METAR-TAF: